Storm Events Database

Event Details

Event Hail
Magnitude 0.75 in.
State TEXAS
County/Area HARTLEY
WFO AMA
Begin Date 06/04/2009 16:06:00 CST-6
Begin Range 7
Begin Azimuth SE
Begin Location ROMERO
Begin Lat/Lon 35.65/-102.83
End Date 06/04/2009 16:06:00 CST-6
Deaths Direct/Indirect 0/0 (fatality details below, when available...)
Injuries Direct/Indirect 0/0
Property Damage 0.00K
Crop Damage 0.00K
Episode Narrative Thunderstorms moved off the higher terrain of New Mexico into the Panhandles during the evening. A moist and unstable air mass was located across the Panhandles...which allowed thunderstorms to intensify as they tracked across the area. Reports of hail...straight-line wind damage...and a few brief tornado touchdowns were received. No damage or injuries were reported from these storms.
Event Narrative


All events for this episode:

Location County/Zone St. Date Time T.Z. Type Mag Dth Inj PrD CrD
Totals: 0 0 50.00K 0.00K
DALHART HARTLEY CO. TX 06/04/2009 15:17 CST-6 Tornado EF0 0 0 0.00K 0.00K
ROMERO HARTLEY CO. TX 06/04/2009 16:06 CST-6 Hail 0.75 in. 0 0 0.00K 0.00K
DUMAS MOORE CO. TX 06/04/2009 16:20 CST-6 Hail 1.00 in. 0 0 0.00K 0.00K
DUMAS MOORE CO. TX 06/04/2009 16:24 CST-6 Hail 1.00 in. 0 0 0.00K 0.00K
DUMAS MOORE CO. TX 06/04/2009 16:40 CST-6 Hail 0.75 in. 0 0 0.00K 0.00K
VEGA OLDHAM CO. TX 06/04/2009 17:02 CST-6 Thunderstorm Wind 55 kts. MG 0 0 0.00K 0.00K
WILDORADO OLDHAM CO. TX 06/04/2009 17:03 CST-6 Hail 0.75 in. 0 0 0.00K 0.00K
VEGA OLDHAM CO. TX 06/04/2009 17:08 CST-6 Tornado EF0 0 0 0.00K 0.00K
WILDORADO OLDHAM CO. TX 06/04/2009 17:08 CST-6 Hail 0.75 in. 0 0 0.00K 0.00K
WILDORADO OLDHAM CO. TX 06/04/2009 17:09 CST-6 Hail 0.88 in. 0 0 0.00K 0.00K
ADRIAN OLDHAM CO. TX 06/04/2009 17:10 CST-6 Hail 0.75 in. 0 0 0.00K 0.00K
HITCHLAND HANSFORD CO. TX 06/04/2009 17:12 CST-6 Hail 0.75 in. 0 0 0.00K 0.00K
AMARILLO RANDALL CO. TX 06/04/2009 17:33 CST-6 Tornado EF0 0 0 0.00K 0.00K
SIMMS DEAF SMITH CO. TX 06/04/2009 17:40 CST-6 Hail 0.75 in. 0 0 0.00K 0.00K
CANYON RANDALL CO. TX 06/04/2009 17:40 CST-6 Tornado EF0 0 0 0.00K 0.00K
CANYON RANDALL CO. TX 06/04/2009 17:44 CST-6 Thunderstorm Wind 65 kts. EG 0 0 0.00K 0.00K
CANYON RANDALL CO. TX 06/04/2009 17:45 CST-6 Thunderstorm Wind 78 kts. EG 0 0 25.00K 0.00K
CANYON RANDALL CO. TX 06/04/2009 17:45 CST-6 Thunderstorm Wind 61 kts. EG 0 0 4.00K 0.00K
UMBARGER RANDALL CO. TX 06/04/2009 17:47 CST-6 Thunderstorm Wind 61 kts. EG 0 0 6.00K 0.00K
UMBARGER RANDALL CO. TX 06/04/2009 17:48 CST-6 Thunderstorm Wind 56 kts. EG 0 0 0.00K 0.00K
MILO CENTER DEAF SMITH CO. TX 06/04/2009 17:52 CST-6 Hail 0.75 in. 0 0 0.00K 0.00K
DAWN DEAF SMITH CO. TX 06/04/2009 17:59 CST-6 Thunderstorm Wind 52 kts. EG 0 0 0.00K 0.00K
HEREFORD DEAF SMITH CO. TX 06/04/2009 18:00 CST-6 Thunderstorm Wind 70 kts. EG 0 0 15.00K 0.00K
Totals: 0 0 50.00K 0.00K